Time;durP1;ratioP1;P1;durP2;ratioP2;P2;SDS_P1;SDS_P2;PMS_P1;PMS_P2;Temp;Humidity;BMP_temperature;BMP_pressure;BME280_temperature;BME280_humidity;BME280_pressure;Samples;Min_cycle;Max_cycle;Signal;HPM_P1;HPM_P2
2022/10/13 00:00:01;;;;;;;0.10;0.10;;;;;;;7.52;100.00;97082.03;5025839;28;20047;-73
2022/10/13 00:02:59;;;;;;;0.10;0.10;;;;;;;7.49;100.00;97077.16;5023911;28;20047;-74
2022/10/13 00:05:48;;;;;;;0.25;0.20;;;;;;;7.58;100.00;97070.53;5025590;28;20144;-74
2022/10/13 00:08:35;;;;;;;0.13;0.13;;;;;;;7.59;100.00;97074.03;5022722;28;20077;-74
2022/10/13 00:11:26;;;;;;;0.10;0.10;;;;;;;7.61;100.00;97072.75;5023895;28;20444;-73
2022/10/13 00:14:12;;;;;;;0.10;0.10;;;;;;;7.66;100.00;97074.78;5022133;28;20048;-74
2022/10/13 00:16:58;;;;;;;0.10;0.10;;;;;;;7.79;100.00;97070.19;5021889;28;20044;-73
2022/10/13 00:19:44;;;;;;;0.25;0.15;;;;;;;7.81;100.00;97068.13;5021605;28;20059;-74
2022/10/13 00:22:30;;;;;;;0.20;0.20;;;;;;;7.79;100.00;97066.72;5023270;28;20048;-74
2022/10/13 00:25:16;;;;;;;0.28;0.10;;;;;;;7.72;100.00;97063.28;5025684;28;20384;-73
2022/10/13 00:28:03;;;;;;;0.10;0.10;;;;;;;7.64;100.00;97055.56;5023143;28;20045;-74
2022/10/13 00:30:51;;;;;;;0.10;0.10;;;;;;;7.68;100.00;97065.56;5023923;28;20124;-74
2022/10/13 00:33:36;;;;;;;0.10;0.10;;;;;;;7.72;100.00;97060.63;5024605;28;20049;-73
2022/10/13 00:36:22;;;;;;;0.20;0.17;;;;;;;7.88;100.00;97062.75;5022215;28;20119;-73
2022/10/13 00:39:08;;;;;;;0.20;0.20;;;;;;;7.84;100.00;97058.88;5023993;28;20045;-73
2022/10/13 00:41:56;;;;;;;0.10;0.10;;;;;;;7.81;100.00;97062.81;5023295;28;20348;-74
2022/10/13 00:44:58;;;;;;;0.13;0.10;;;;;;;8.10;100.00;97060.53;5016990;28;20041;-74
2022/10/13 00:47:48;;;;;;;0.20;0.13;;;;;;;8.31;100.00;97057.47;5022421;28;20045;-74
2022/10/13 00:50:38;;;;;;;0.10;0.10;;;;;;;8.51;100.00;97061.84;5022292;28;20041;-74
2022/10/13 00:53:30;;;;;;;0.10;0.10;;;;;;;8.62;100.00;97056.56;5024346;28;20088;-73
2022/10/13 00:56:18;;;;;;;0.10;0.10;;;;;;;8.61;100.00;97059.47;5026552;28;20466;-72
2022/10/13 00:59:12;;;;;;;0.30;0.20;;;;;;;8.56;100.00;97045.97;5029416;28;20145;-73
2022/10/13 01:02:08;;;;;;;0.13;0.10;;;;;;;8.54;100.00;97043.53;5024486;28;20536;-73
2022/10/13 01:04:56;;;;;;;0.10;0.10;;;;;;;8.52;100.00;97050.94;5025821;28;20406;-73
2022/10/13 01:07:47;;;;;;;0.20;0.20;;;;;;;8.40;100.00;97049.22;5024251;28;20458;-73
2022/10/13 01:10:58;;;;;;;0.30;0.30;;;;;;;8.35;100.00;97041.88;5025364;28;20048;-74
2022/10/13 01:13:55;;;;;;;0.10;0.10;;;;;;;8.34;100.00;97040.22;5025799;28;20729;-73
2022/10/13 01:16:51;;;;;;;0.10;0.10;;;;;;;8.35;100.00;97041.88;5026314;28;20044;-73
2022/10/13 01:19:55;;;;;;;0.10;0.10;;;;;;;8.33;100.00;97041.28;5014817;28;20507;-74
2022/10/13 01:22:57;;;;;;;0.10;0.10;;;;;;;8.34;100.00;97037.56;5026945;28;20428;-74
2022/10/13 01:25:55;;;;;;;;;;;;;;;8.25;100.00;97039.69;5019601;28;20176;-74
2022/10/13 01:28:55;;;;;;;0.10;0.10;;;;;;;8.15;100.00;97038.53;5025105;28;20137;-75
2022/10/13 01:32:15;;;;;;;0.10;0.10;;;;;;;8.17;100.00;97029.31;5026753;28;20072;-75
2022/10/13 01:35:13;;;;;;;0.10;0.10;;;;;;;8.15;100.00;97026.03;5028305;28;20052;-74
2022/10/13 01:38:14;;;;;;;0.10;0.10;;;;;;;8.17;100.00;97018.66;5025808;28;20379;-74
2022/10/13 01:41:32;;;;;;;0.20;0.20;;;;;;;8.25;100.00;97020.19;5024648;28;20610;-74
2022/10/13 01:44:33;;;;;;;0.28;0.20;;;;;;;8.29;100.00;97016.06;5024088;28;20050;-73
2022/10/13 01:47:20;;;;;;;0.20;0.20;;;;;;;8.31;100.00;97017.47;5025076;28;20045;-72
2022/10/13 01:50:10;;;;;;;0.10;0.10;;;;;;;8.32;100.00;97008.41;5027753;28;20041;-71
2022/10/13 01:53:00;;;;;;;0.10;0.10;;;;;;;8.37;100.00;96997.13;5026283;28;20045;-72
2022/10/13 01:55:52;;;;;;;0.10;0.10;;;;;;;8.37;100.00;96991.81;5025192;28;20077;-73
2022/10/13 01:58:39;;;;;;;0.35;0.20;;;;;;;8.37;100.00;96992.63;5024775;28;20041;-74
2022/10/13 02:01:34;;;;;;;0.10;0.10;;;;;;;8.30;100.00;96981.16;5026875;28;20207;-73
2022/10/13 02:04:20;;;;;;;0.10;0.10;;;;;;;8.33;100.00;96988.75;5015317;28;20476;-73
2022/10/13 02:07:21;;;;;;;0.10;0.10;;;;;;;8.36;100.00;96982.19;5025475;28;20145;-74
2022/10/13 02:10:19;;;;;;;0.20;0.20;;;;;;;8.36;100.00;96985.66;5025415;28;20404;-73
2022/10/13 02:13:10;;;;;;;0.20;0.20;;;;;;;8.38;100.00;96983.56;5028273;28;20033;-74
2022/10/13 02:15:59;;;;;;;0.10;0.10;;;;;;;8.43;100.00;96976.78;5025091;28;20425;-74
2022/10/13 02:18:46;;;;;;;0.10;0.10;;;;;;;8.40;100.00;96967.34;5025241;28;20041;-72
2022/10/13 02:21:32;;;;;;;0.10;0.10;;;;;;;8.41;100.00;96977.00;5025066;28;20068;-74
2022/10/13 02:24:21;;;;;;;0.30;0.20;;;;;;;8.40;100.00;96969.19;5026053;28;20551;-74
2022/10/13 02:27:07;;;;;;;0.10;0.10;;;;;;;8.35;100.00;96968.03;5008740;28;20250;-72
2022/10/13 02:29:56;;;;;;;0.10;0.10;;;;;;;8.36;100.00;96963.50;5026623;28;20570;-72
2022/10/13 02:32:45;;;;;;;0.20;0.20;;;;;;;8.35;100.00;96970.69;5013681;28;20049;-74
2022/10/13 02:35:32;;;;;;;0.20;0.20;;;;;;;8.38;100.00;96966.75;5026843;28;20045;-74
2022/10/13 02:38:19;;;;;;;0.15;0.15;;;;;;;8.38;100.00;96967.56;5023910;28;20131;-74
2022/10/13 02:41:05;;;;;;;0.10;0.10;;;;;;;8.37;100.00;96970.47;5015779;28;20490;-73
2022/10/13 02:43:51;;;;;;;0.10;0.10;;;;;;;8.41;100.00;96974.34;5025016;28;20219;-72
2022/10/13 02:46:37;;;;;;;0.10;0.10;;;;;;;8.43;100.00;96963.44;5025708;28;20124;-74
2022/10/13 02:49:22;;;;;;;0.17;0.10;;;;;;;8.37;100.00;96960.63;5025519;28;20041;-74
2022/10/13 02:52:08;;;;;;;0.20;0.20;;;;;;;8.38;100.00;96956.09;5022671;28;20052;-72
2022/10/13 02:54:56;;;;;;;0.10;0.10;;;;;;;8.36;100.00;96958.19;5023842;28;20045;-74
2022/10/13 02:57:42;;;;;;;0.28;0.20;;;;;;;8.36;100.00;96953.66;5023485;28;20426;-71
2022/10/13 03:00:29;;;;;;;0.20;0.15;;;;;;;8.32;100.00;96964.94;5025227;28;20476;-73
2022/10/13 03:03:15;;;;;;;0.13;0.10;;;;;;;8.32;100.00;96962.28;5022181;28;20037;-74
2022/10/13 03:06:04;;;;;;;0.30;0.20;;;;;;;8.29;100.00;96968.06;5025243;28;20044;-72
2022/10/13 03:08:50;;;;;;;0.10;0.10;;;;;;;8.27;100.00;96967.47;5027000;28;20577;-73
2022/10/13 03:11:36;;;;;;;0.10;0.10;;;;;;;8.23;100.00;96971.59;5024541;28;20041;-73
2022/10/13 03:14:22;;;;;;;0.10;0.10;;;;;;;8.19;100.00;96968.59;5025049;28;20151;-72
2022/10/13 03:17:08;;;;;;;0.10;0.10;;;;;;;8.14;100.00;96970.28;5022034;28;20206;-72
2022/10/13 03:19:54;;;;;;;0.10;0.10;;;;;;;8.12;100.00;96972.34;5025075;28;20083;-72
2022/10/13 03:22:40;;;;;;;0.10;0.10;;;;;;;8.13;100.00;96968.66;5022774;28;20049;-74
2022/10/13 03:25:27;;;;;;;0.10;0.10;;;;;;;8.14;100.00;96962.28;5027120;28;20678;-75
2022/10/13 03:28:13;;;;;;;0.10;0.10;;;;;;;8.13;100.00;96973.97;5023971;28;20094;-72
2022/10/13 03:31:05;;;;;;;0.10;0.10;;;;;;;8.15;100.00;96974.56;5026034;28;20049;-73
2022/10/13 03:33:51;;;;;;;0.10;0.10;;;;;;;8.16;100.00;96976.19;5025349;28;20397;-74
2022/10/13 03:36:38;;;;;;;0.15;0.10;;;;;;;8.15;100.00;96975.38;5023584;28;20390;-75
2022/10/13 03:39:24;;;;;;;0.10;0.10;;;;;;;8.20;100.00;96982.72;5024839;28;20210;-73
2022/10/13 03:42:09;;;;;;;0.10;0.10;;;;;;;8.17;100.00;96980.47;5012905;28;20049;-74
2022/10/13 03:44:57;;;;;;;0.10;0.10;;;;;;;8.20;100.00;96974.72;5022977;28;20572;-72
2022/10/13 03:47:43;;;;;;;0.10;0.10;;;;;;;8.11;100.00;96974.22;5021327;28;20122;-73
2022/10/13 03:50:28;;;;;;;0.10;0.10;;;;;;;8.12;100.00;96981.16;5024209;28;20388;-74
2022/10/13 03:53:15;;;;;;;0.10;0.10;;;;;;;8.18;100.00;96964.28;5022748;28;20557;-73
2022/10/13 03:56:01;;;;;;;0.22;0.10;;;;;;;8.24;100.00;96973.25;5024909;28;20300;-74
2022/10/13 03:58:54;;;;;;;0.47;0.10;;;;;;;8.02;100.00;96960.34;5021432;28;20537;-75
2022/10/13 04:01:40;;;;;;;0.10;0.10;;;;;;;8.04;100.00;96978.78;5022843;28;20113;-73
2022/10/13 04:04:25;;;;;;;0.10;0.10;;;;;;;8.06;100.00;96979.38;5025341;28;20243;-75
2022/10/13 04:07:15;;;;;;;0.10;0.10;;;;;;;8.16;100.00;96978.84;5024823;28;20493;-73
2022/10/13 04:10:01;;;;;;;0.10;0.10;;;;;;;8.06;100.00;96974.03;5025336;28;20036;-72
2022/10/13 04:12:48;;;;;;;0.10;0.10;;;;;;;8.27;100.00;96976.28;5022401;28;20041;-75
2022/10/13 04:15:39;;;;;;;0.10;0.10;;;;;;;8.30;100.00;96975.84;5025513;28;20056;-74
2022/10/13 04:18:25;;;;;;;;;;;;;;;8.27;100.00;96981.63;5026497;28;20098;-74
2022/10/13 04:21:13;;;;;;;0.20;0.10;;;;;;;8.33;100.00;96974.59;5025920;28;19947;-74
2022/10/13 04:24:00;;;;;;;0.20;0.20;;;;;;;8.32;100.00;96973.75;5026272;28;20072;-74
2022/10/13 04:26:46;;;;;;;0.10;0.10;;;;;;;8.32;100.00;96965.75;5023821;28;20037;-73
2022/10/13 04:29:32;;;;;;;0.17;0.17;;;;;;;8.32;100.00;96967.63;5024718;28;20041;-75
2022/10/13 04:32:18;;;;;;;0.10;0.10;;;;;;;8.12;100.00;96954.50;5006820;28;20127;-74
2022/10/13 04:35:04;;;;;;;0.10;0.10;;;;;;;8.04;100.00;96954.78;5026851;28;20049;-74
2022/10/13 04:37:50;;;;;;;0.10;0.10;;;;;;;7.97;100.00;96946.84;5026915;28;20152;-73
2022/10/13 04:40:35;;;;;;;0.10;0.10;;;;;;;7.81;100.00;96934.91;5026163;28;20056;-75
2022/10/13 04:43:21;;;;;;;0.20;0.17;;;;;;;7.74;100.00;96931.50;5024730;28;20559;-73
2022/10/13 04:46:12;;;;;;;0.10;0.10;;;;;;;7.70;100.00;96934.78;5024824;28;20041;-73
2022/10/13 04:49:00;;;;;;;0.20;0.20;;;;;;;7.65;100.00;96938.13;5026878;28;20041;-74
2022/10/13 04:51:51;;;;;;;0.15;0.15;;;;;;;7.55;100.00;96937.81;5024138;28;20128;-73
2022/10/13 04:54:36;;;;;;;0.10;0.10;;;;;;;7.59;100.00;96935.53;5024644;28;20511;-74
2022/10/13 04:57:22;;;;;;;0.10;0.10;;;;;;;7.50;100.00;96911.81;5023504;28;20128;-73
2022/10/13 05:00:09;;;;;;;0.10;0.10;;;;;;;7.42;100.00;96925.41;5024023;28;20037;-74
2022/10/13 05:02:54;;;;;;;0.10;0.10;;;;;;;7.37;100.00;96921.75;5024049;28;20515;-75
2022/10/13 05:05:41;;;;;;;0.10;0.10;;;;;;;7.32;100.00;96927.75;5020304;28;20448;-74
2022/10/13 05:08:27;;;;;;;0.17;0.13;;;;;;;7.32;100.00;96914.44;5021190;28;20071;-74
2022/10/13 05:11:13;;;;;;;0.10;0.10;;;;;;;7.35;100.00;96914.00;5022392;28;20041;-74
2022/10/13 05:14:00;;;;;;;0.43;0.20;;;;;;;7.40;100.00;96916.84;5024003;28;20502;-73
2022/10/13 05:16:46;;;;;;;0.10;0.10;;;;;;;7.38;100.00;96910.06;5025467;28;20037;-74
2022/10/13 05:19:34;;;;;;;0.10;0.10;;;;;;;7.30;100.00;96913.00;5026597;28;20056;-75
2022/10/13 05:22:20;;;;;;;0.10;0.10;;;;;;;7.16;100.00;96906.97;5025134;28;20732;-73
2022/10/13 05:25:07;;;;;;;0.40;0.20;;;;;;;7.11;100.00;96914.78;5027816;28;20068;-75
2022/10/13 05:27:53;;;;;;;0.10;0.10;;;;;;;7.14;100.00;96903.72;5023159;28;20049;-74
2022/10/13 05:30:39;;;;;;;0.10;0.10;;;;;;;7.14;100.00;96911.69;5022648;28;20537;-73
2022/10/13 05:33:25;;;;;;;0.10;0.10;;;;;;;7.21;100.00;96915.94;5024305;28;20076;-75
2022/10/13 05:36:20;;;;;;;0.20;0.20;;;;;;;7.14;100.00;96909.84;5023944;28;20037;-75
2022/10/13 05:39:09;;;;;;;0.10;0.10;;;;;;;7.23;100.00;96915.72;5027420;28;20102;-73
2022/10/13 05:41:55;;;;;;;0.20;0.20;;;;;;;7.29;100.00;96920.19;5026894;28;20029;-73
2022/10/13 05:44:40;;;;;;;0.10;0.10;;;;;;;7.34;100.00;96903.56;5028312;28;20068;-75
2022/10/13 05:47:27;;;;;;;0.10;0.10;;;;;;;7.35;100.00;96911.34;5028916;28;20053;-75
2022/10/13 05:50:15;;;;;;;0.10;0.10;;;;;;;7.43;100.00;96910.25;5029023;28;20429;-74
2022/10/13 05:53:01;;;;;;;0.10;0.10;;;;;;;7.47;100.00;96901.63;5027950;28;20253;-74
2022/10/13 05:55:46;;;;;;;0.10;0.10;;;;;;;7.59;100.00;96900.91;5026842;28;20037;-75
2022/10/13 05:58:42;;;;;;;0.10;0.10;;;;;;;7.65;100.00;96902.69;5025202;28;20561;-75
2022/10/13 06:01:32;;;;;;;0.10;0.10;;;;;;;7.66;100.00;96904.31;5019195;28;20123;-73
2022/10/13 06:04:23;;;;;;;0.10;0.10;;;;;;;7.63;100.00;96899.44;5026050;28;20037;-75
2022/10/13 06:07:10;;;;;;;0.10;0.10;;;;;;;7.69;100.00;96906.53;5026340;28;20045;-72
2022/10/13 06:09:57;;;;;;;0.10;0.10;;;;;;;7.68;100.00;96896.91;5025030;28;20042;-72
2022/10/13 06:12:43;;;;;;;0.10;0.10;;;;;;;7.61;100.00;96893.50;5026520;28;20041;-73
2022/10/13 06:15:29;;;;;;;0.10;0.10;;;;;;;7.77;100.00;96888.41;5028386;28;20089;-74
2022/10/13 06:18:15;;;;;;;0.00;0.00;;;;;;;7.98;100.00;96895.19;5026598;28;20454;-74
2022/10/13 06:21:01;;;;;;;0.10;0.10;;;;;;;7.98;100.00;96881.84;5028796;28;20349;-73
2022/10/13 06:23:47;;;;;;;0.10;0.10;;;;;;;8.06;100.00;96884.22;5012701;28;20177;-74
2022/10/13 06:26:32;;;;;;;0.10;0.10;;;;;;;8.04;100.00;96885.50;5028939;28;20045;-75
2022/10/13 06:29:18;;;;;;;0.10;0.10;;;;;;;8.14;100.00;96898.31;5028702;28;20056;-73
2022/10/13 06:32:05;;;;;;;0.20;0.20;;;;;;;8.08;100.00;96892.81;5028536;28;20329;-75
2022/10/13 06:34:50;;;;;;;1.02;0.47;;;;;;;7.87;100.00;96890.59;5025351;28;20049;-72
2022/10/13 06:37:36;;;;;;;1.10;0.50;;;;;;;7.89;100.00;96893.03;5027122;28;20562;-75
2022/10/13 06:40:23;;;;;;;0.10;0.10;;;;;;;7.82;100.00;96901.09;5026876;28;20639;-74
2022/10/13 06:43:09;;;;;;;0.10;0.10;;;;;;;7.77;100.00;96920.38;5026542;28;20084;-72
2022/10/13 06:46:00;;;;;;;0.10;0.10;;;;;;;7.83;100.00;96908.84;5029014;28;20425;-74
2022/10/13 06:48:50;;;;;;;0.10;0.10;;;;;;;7.80;100.00;96903.16;5026218;28;20067;-72
2022/10/13 06:51:36;;;;;;;0.10;0.10;;;;;;;7.53;100.00;96900.72;5027454;28;20037;-74
2022/10/13 06:54:21;;;;;;;0.10;0.10;;;;;;;7.48;100.00;96905.91;5026186;28;20064;-74
2022/10/13 06:57:11;;;;;;;0.10;0.10;;;;;;;7.48;100.00;96916.56;5027273;28;20033;-73
2022/10/13 06:59:57;;;;;;;0.35;0.20;;;;;;;7.56;100.00;96910.16;5010881;28;20034;-72
2022/10/13 07:02:43;;;;;;;0.20;0.15;;;;;;;7.56;100.00;96909.34;5025118;28;20405;-72
2022/10/13 07:05:30;;;;;;;0.20;0.10;;;;;;;7.65;100.00;96905.34;5025322;28;20033;-74
2022/10/13 07:08:16;;;;;;;0.10;0.10;;;;;;;7.75;100.00;96909.16;5022687;28;20044;-72
2022/10/13 07:11:09;;;;;;;0.20;0.20;;;;;;;7.87;100.00;96905.78;5027765;28;20451;-72
2022/10/13 07:13:55;;;;;;;0.10;0.10;;;;;;;7.84;100.00;96901.69;5010977;28;20443;-72
2022/10/13 07:16:40;;;;;;;0.15;0.15;;;;;;;7.93;100.00;96910.19;5025676;28;20046;-74
2022/10/13 07:19:26;;;;;;;0.10;0.10;;;;;;;8.02;100.00;96912.38;5028400;28;20052;-74
2022/10/13 07:22:12;;;;;;;0.13;0.13;;;;;;;8.04;100.00;96912.16;5024787;28;20041;-72
2022/10/13 07:24:58;;;;;;;0.32;0.20;;;;;;;8.24;100.00;96909.25;5024574;28;20041;-72
2022/10/13 07:27:44;;;;;;;0.10;0.10;;;;;;;8.25;100.00;96901.06;5024256;28;20041;-72
2022/10/13 07:30:29;;;;;;;0.10;0.10;;;;;;;8.28;100.00;96897.13;5023662;28;20041;-74
2022/10/13 07:33:15;;;;;;;0.10;0.10;;;;;;;8.44;100.00;96896.53;5025315;28;20084;-74
2022/10/13 07:36:02;;;;;;;0.10;0.10;;;;;;;8.61;100.00;96904.75;5028855;28;20045;-72
2022/10/13 07:38:48;;;;;;;0.10;0.10;;;;;;;8.63;100.00;96899.97;5014632;28;20037;-74
2022/10/13 07:41:35;;;;;;;0.20;0.20;;;;;;;8.79;100.00;96887.88;5026419;28;20495;-74
2022/10/13 07:44:21;;;;;;;0.10;0.10;;;;;;;8.97;100.00;96895.03;5028126;28;20475;-74
2022/10/13 07:47:07;;;;;;;0.20;0.13;;;;;;;8.97;100.00;96897.69;5025352;28;20293;-73
2022/10/13 07:49:54;;;;;;;0.10;0.10;;;;;;;8.96;100.00;96898.75;5025084;28;20098;-72
2022/10/13 07:52:40;;;;;;;0.10;0.10;;;;;;;9.03;100.00;96908.28;5026716;28;20045;-73
2022/10/13 07:55:29;;;;;;;0.10;0.10;;;;;;;9.07;100.00;96906.78;5026624;28;20029;-74
2022/10/13 07:58:15;;;;;;;0.20;0.20;;;;;;;9.13;100.00;96899.72;5014705;28;20041;-74
2022/10/13 08:01:01;;;;;;;0.17;0.17;;;;;;;9.31;100.00;96890.81;5027335;28;20042;-72
2022/10/13 08:03:48;;;;;;;0.10;0.10;;;;;;;9.34;100.00;96890.34;5025804;28;20407;-72
2022/10/13 08:06:37;;;;;;;0.10;0.10;;;;;;;9.51;100.00;96895.84;5026021;28;20041;-74
2022/10/13 08:09:25;;;;;;;0.10;0.10;;;;;;;9.69;100.00;96893.06;5024506;28;20042;-73
2022/10/13 08:12:12;;;;;;;0.10;0.10;;;;;;;9.85;100.00;96892.34;5025498;28;20214;-72
2022/10/13 08:14:58;;;;;;;0.10;0.10;;;;;;;9.90;100.00;96879.13;5016900;28;20056;-74
2022/10/13 08:17:44;;;;;;;0.20;0.20;;;;;;;10.14;100.00;96885.25;5026453;28;20183;-71
2022/10/13 08:20:33;;;;;;;0.10;0.10;;;;;;;10.41;100.00;96884.75;5025957;28;20531;-74
2022/10/13 08:23:19;;;;;;;0.10;0.10;;;;;;;10.48;100.00;96878.22;5023356;28;20087;-74
2022/10/13 08:26:15;;;;;;;0.10;0.10;;;;;;;10.37;100.00;96875.59;5027749;28;20461;-73
2022/10/13 08:29:01;;;;;;;0.10;0.10;;;;;;;10.28;100.00;96888.53;5024263;28;20502;-73
2022/10/13 08:31:47;;;;;;;0.20;0.20;;;;;;;10.33;100.00;96886.75;5023308;28;20045;-72
2022/10/13 08:34:35;;;;;;;0.17;0.10;;;;;;;10.25;100.00;96879.09;5027059;28;20041;-74
2022/10/13 08:37:21;;;;;;;0.15;0.15;;;;;;;10.04;100.00;96893.06;5024537;28;20051;-73
2022/10/13 08:40:12;;;;;;;0.10;0.10;;;;;;;10.01;100.00;96885.50;5009279;28;20048;-73
2022/10/13 08:42:58;;;;;;;0.10;0.10;;;;;;;10.02;100.00;96892.47;5026465;28;20102;-74
2022/10/13 08:45:47;;;;;;;0.20;0.20;;;;;;;10.03;100.00;96886.06;5025098;28;20045;-72
2022/10/13 08:48:40;;;;;;;0.20;0.10;;;;;;;10.15;100.00;96886.88;5024313;28;20041;-74
2022/10/13 08:51:27;;;;;;;0.10;0.10;;;;;;;10.30;100.00;96879.19;5008209;28;20052;-74
2022/10/13 08:54:17;;;;;;;0.47;0.20;;;;;;;10.20;100.00;96883.50;5023809;28;20037;-73
2022/10/13 08:57:05;;;;;;;0.10;0.10;;;;;;;10.08;100.00;96891.53;5025612;28;20047;-73
2022/10/13 08:59:51;;;;;;;0.20;0.20;;;;;;;10.06;100.00;96888.28;5026116;28;20342;-73
2022/10/13 09:02:37;;;;;;;0.10;0.10;;;;;;;10.09;100.00;96887.81;5024441;28;20045;-74
2022/10/13 09:05:53;;;;;;;0.20;0.20;;;;;;;10.04;100.00;96877.81;5026443;28;20112;-74
2022/10/13 09:08:44;;;;;;;0.10;0.10;;;;;;;10.07;100.00;96883.75;5026449;28;20041;-75
2022/10/13 09:11:35;;;;;;;0.10;0.10;;;;;;;10.05;100.00;96886.66;5023124;28;20065;-73
2022/10/13 09:14:31;;;;;;;0.10;0.10;;;;;;;10.14;100.00;96890.59;5025245;28;20501;-73
2022/10/13 09:17:25;;;;;;;0.20;0.20;;;;;;;10.21;100.00;96888.63;5025033;28;20049;-72
2022/10/13 09:20:28;;;;;;;0.20;0.20;;;;;;;10.41;100.00;96890.09;5028963;28;20095;-75
2022/10/13 09:23:21;;;;;;;0.10;0.10;;;;;;;10.60;100.00;96872.84;5028074;28;20117;-75
2022/10/13 09:26:16;;;;;;;0.10;0.10;;;;;;;10.74;100.00;96850.09;5029354;28;20493;-73
2022/10/13 09:29:24;;;;;;;0.30;0.20;;;;;;;11.03;100.00;96844.69;5030924;28;20048;-74
2022/10/13 09:32:15;;;;;;;0.10;0.10;;;;;;;11.10;100.00;96845.34;5026985;28;20189;-74
2022/10/13 09:35:21;;;;;;;0.17;0.17;;;;;;;11.25;100.00;96850.16;5029622;28;20502;-75
2022/10/13 09:38:19;;;;;;;0.13;0.13;;;;;;;11.34;100.00;96841.47;5027487;28;20122;-76
2022/10/13 09:41:13;;;;;;;0.20;0.20;;;;;;;11.36;100.00;96850.09;5030846;28;20048;-75
2022/10/13 09:44:06;;;;;;;0.10;0.10;;;;;;;11.34;100.00;96841.47;5029057;28;20355;-74
2022/10/13 09:46:58;;;;;;;0.10;0.10;;;;;;;11.36;100.00;96842.06;5029245;28;20238;-74
2022/10/13 09:49:44;;;;;;;0.10;0.10;;;;;;;11.50;100.00;96844.38;5028351;28;20380;-75
2022/10/13 09:52:30;;;;;;;0.15;0.13;;;;;;;11.42;100.00;96846.41;5027699;28;20519;-74
2022/10/13 09:55:29;;;;;;;0.20;0.20;;;;;;;11.41;100.00;96847.47;5029790;28;20072;-74
2022/10/13 09:58:25;;;;;;;0.10;0.10;;;;;;;11.37;100.00;96842.88;5028704;28;20049;-75
2022/10/13 10:01:24;;;;;;;0.10;0.10;;;;;;;11.41;100.00;96838.63;5028572;28;20482;-73
2022/10/13 10:04:19;;;;;;;0.10;0.10;;;;;;;11.46;100.00;96829.88;5027907;28;20473;-73
2022/10/13 10:07:11;;;;;;;0.10;0.10;;;;;;;11.50;100.00;96839.84;5031795;28;20052;-73
2022/10/13 10:10:03;;;;;;;0.38;0.17;;;;;;;11.76;100.00;96834.88;5025976;28;20329;-73
2022/10/13 10:12:50;;;;;;;0.20;0.20;;;;;;;12.22;100.00;96828.28;5016813;28;20037;-75
2022/10/13 10:15:54;;;;;;;0.20;0.20;;;;;;;12.99;100.00;96829.88;5028165;28;20040;-75
2022/10/13 10:18:55;;;;;;;0.17;0.17;;;;;;;13.32;100.00;96828.88;5027235;28;20047;-73
2022/10/13 10:22:09;;;;;;;0.10;0.10;;;;;;;12.81;100.00;96831.88;5027406;28;20049;-73
2022/10/13 10:25:15;;;;;;;0.10;0.10;;;;;;;12.12;100.00;96831.63;5027827;28;20441;-74
2022/10/13 10:28:27;;;;;;;0.20;0.20;;;;;;;11.81;100.00;96826.91;5019063;28;20041;-73
2022/10/13 10:31:33;;;;;;;0.10;0.10;;;;;;;11.84;100.00;96837.97;5025673;28;20077;-73
2022/10/13 10:34:31;;;;;;;0.20;0.20;;;;;;;11.78;100.00;96820.16;5016239;28;20033;-75
2022/10/13 10:37:48;;;;;;;0.10;0.10;;;;;;;11.59;100.00;96826.81;5006612;28;20457;-74
2022/10/13 10:40:44;;;;;;;0.10;0.10;;;;;;;11.89;100.00;96827.28;4677547;28;10000384;-75
2022/10/13 10:43:49;;;;;;;0.13;0.10;;;;;;;11.75;100.00;96823.34;4681602;28;10000688;-74
2022/10/13 10:46:47;;;;;;;0.10;0.10;;;;;;;11.76;100.00;96824.97;5007415;28;20044;-75
2022/10/13 10:49:35;;;;;;;0.10;0.10;;;;;;;11.65;100.00;96820.50;5025356;28;20326;-75
2022/10/13 10:52:59;;;;;;;0.10;0.10;;;;;;;11.65;100.00;96820.50;5011006;28;20166;-73
2022/10/13 10:55:59;;;;;;;0.13;0.10;;;;;;;11.73;100.00;96820.06;5026707;28;20381;-74
2022/10/13 10:59:11;;;;;;;0.10;0.10;;;;;;;11.92;100.00;96810.72;5024718;28;20144;-75
2022/10/13 11:02:05;;;;;;;0.17;0.10;;;;;;;12.12;100.00;96807.47;5027265;28;20418;-74
2022/10/13 11:04:52;;;;;;;0.20;0.20;;;;;;;12.11;100.00;96800.50;5026369;28;20611;-74
2022/10/13 11:07:41;;;;;;;0.10;0.10;;;;;;;12.24;100.00;96807.38;5024051;28;20563;-76
2022/10/13 11:10:28;;;;;;;0.20;0.15;;;;;;;12.35;100.00;96790.31;5024368;28;20033;-75
2022/10/13 11:13:16;;;;;;;0.10;0.10;;;;;;;12.44;100.00;96780.75;5024216;28;20308;-74
2022/10/13 11:16:27;;;;;;;0.10;0.10;;;;;;;12.50;100.00;96784.31;5025538;28;20625;-75
2022/10/13 11:19:28;;;;;;;0.37;0.20;;;;;;;12.99;100.00;96770.78;5023860;28;20045;-74
2022/10/13 11:22:21;;;;;;;0.10;0.10;;;;;;;13.45;100.00;96763.91;5013944;28;20561;-75
2022/10/13 11:25:28;;;;;;;0.35;0.20;;;;;;;14.10;100.00;96759.97;4993977;28;20049;-74
2022/10/13 11:28:19;;;;;;;0.17;0.17;;;;;;;14.08;100.00;96759.41;5007723;28;20341;-75
2022/10/13 11:31:05;;;;;;;0.10;0.10;;;;;;;14.65;100.00;96749.66;5008381;28;20485;-75
2022/10/13 11:33:59;;;;;;;0.20;0.20;;;;;;;15.70;100.00;96743.69;5007815;28;20474;-75
2022/10/13 11:36:58;;;;;;;0.43;0.23;;;;;;;18.55;100.00;96738.69;4654395;28;9999870;-76
2022/10/13 11:40:14;;;;;;;0.20;0.20;;;;;;;20.66;88.18;96733.56;5001876;28;20268;-74
2022/10/13 11:43:28;;;;;;;0.10;0.10;;;;;;;18.54;100.00;96727.03;5004680;28;20263;-74
2022/10/13 11:46:25;;;;;;;0.10;0.10;;;;;;;17.67;100.00;96726.47;5010023;28;20046;-74
2022/10/13 11:49:27;;;;;;;0.10;0.10;;;;;;;16.74;100.00;96725.69;5009044;28;20041;-75
2022/10/13 11:52:25;;;;;;;0.10;0.10;;;;;;;16.77;100.00;96729.69;5009077;28;20329;-74
2022/10/13 11:55:31;;;;;;;0.10;0.10;;;;;;;16.17;100.00;96733.25;5011073;28;20037;-73
2022/10/13 11:58:20;;;;;;;0.10;0.10;;;;;;;15.66;100.00;96734.53;5008086;28;20395;-74
2022/10/13 12:01:12;;;;;;;0.10;0.10;;;;;;;15.28;100.00;96732.13;5010572;28;20633;-74
2022/10/13 12:03:57;;;;;;;0.10;0.10;;;;;;;15.02;100.00;96731.38;5010225;28;20297;-73
2022/10/13 12:06:47;;;;;;;0.15;0.13;;;;;;;14.87;100.00;96733.25;5009850;28;20099;-73
2022/10/13 12:09:38;;;;;;;0.10;0.10;;;;;;;14.62;100.00;96731.31;5003853;28;20213;-75
2022/10/13 12:12:24;;;;;;;0.10;0.10;;;;;;;15.00;100.00;96721.91;5009981;28;20521;-73
2022/10/13 12:15:42;;;;;;;0.10;0.10;;;;;;;15.65;100.00;96719.44;5009874;28;20540;-75
2022/10/13 12:18:39;;;;;;;0.10;0.10;;;;;;;15.29;100.00;96712.19;4986353;28;20041;-76
2022/10/13 12:21:25;;;;;;;0.17;0.15;;;;;;;14.91;100.00;96712.75;5001530;28;20254;-76
2022/10/13 12:24:12;;;;;;;0.10;0.10;;;;;;;14.46;100.00;96711.63;5024774;28;20508;-74
2022/10/13 12:26:58;;;;;;;0.10;0.10;;;;;;;14.52;100.00;96710.56;5022391;28;20064;-75
2022/10/13 12:29:44;;;;;;;0.25;0.10;;;;;;;14.27;100.00;96713.19;5023950;28;20041;-75
2022/10/13 12:32:33;;;;;;;0.10;0.10;;;;;;;14.94;100.00;96698.72;5023913;28;20517;-76
2022/10/13 12:35:22;;;;;;;0.20;0.20;;;;;;;15.71;100.00;96688.66;4996256;28;20037;-77
2022/10/13 12:38:18;;;;;;;0.20;0.20;;;;;;;15.78;100.00;96700.75;5021456;28;20101;-77
2022/10/13 12:41:04;;;;;;;0.10;0.10;;;;;;;15.32;100.00;96700.84;5020764;28;20064;-76
2022/10/13 12:43:52;;;;;;;0.20;0.20;;;;;;;15.75;100.00;96700.50;5021862;28;20044;-75
2022/10/13 12:46:52;;;;;;;0.20;0.20;;;;;;;15.99;100.00;96696.09;5023472;28;20517;-77
2022/10/13 12:49:38;;;;;;;0.10;0.10;;;;;;;15.32;100.00;96710.81;5022641;28;20056;-77
2022/10/13 12:52:24;;;;;;;0.10;0.10;;;;;;;15.14;100.00;96698.72;5025928;28;20042;-77
2022/10/13 12:55:15;;;;;;;0.17;0.17;;;;;;;15.30;100.00;96703.00;5024725;28;20131;-75
2022/10/13 12:58:01;;;;;;;0.13;0.13;;;;;;;15.29;100.00;96697.91;5025933;28;20079;-76
2022/10/13 13:00:56;;;;;;;0.10;0.10;;;;;;;15.99;100.00;96693.41;5025742;28;20651;-76
2022/10/13 13:03:43;;;;;;;0.20;0.20;;;;;;;16.82;100.00;96694.53;5017424;28;20033;-76
2022/10/13 13:06:35;;;;;;;0.10;0.10;;;;;;;19.02;100.00;96686.22;5025805;28;20084;-77
2022/10/13 13:09:29;;;;;;;0.30;0.20;;;;;;;19.39;100.00;96682.59;5027529;28;20526;-77
2022/10/13 13:12:22;;;;;;;0.10;0.10;;;;;;;18.78;99.88;96690.94;5024511;28;20239;-76
2022/10/13 13:15:25;;;;;;;0.10;0.10;;;;;;;17.29;100.00;96687.66;5024437;28;20448;-76
2022/10/13 13:18:38;;;;;;;0.10;0.10;;;;;;;16.45;100.00;96698.53;5024607;28;20041;-76
2022/10/13 13:21:24;;;;;;;0.10;0.10;;;;;;;15.83;100.00;96686.44;5026990;28;20064;-77